createdAt,value
2022-11-14T00:02:08.164Z,92.31
2022-11-14T00:04:54.616Z,93.48
2022-11-14T00:07:41.105Z,93.41
2022-11-14T00:10:27.778Z,92.28
2022-11-14T00:13:18.263Z,92.88
2022-11-14T00:16:04.910Z,92.86
2022-11-14T00:18:51.265Z,94.63
2022-11-14T00:21:37.790Z,93.27
2022-11-14T00:24:24.542Z,92.67
2022-11-14T00:27:10.633Z,92.81
2022-11-14T00:29:58.624Z,91.19
2022-11-14T00:32:45.133Z,90.85
2022-11-14T00:35:31.623Z,90.73
2022-11-14T00:38:18.253Z,89.97
2022-11-14T00:41:04.681Z,90.13
2022-11-14T00:43:51.354Z,89.94
2022-11-14T00:46:39.546Z,89.00
2022-11-14T00:49:26.065Z,90.27
2022-11-14T00:52:12.593Z,90.14
2022-11-14T00:54:59.148Z,88.93
2022-11-14T00:57:45.572Z,90.03
2022-11-14T01:00:32.280Z,90.45
2022-11-14T01:03:19.993Z,92.05
2022-11-14T01:06:08.334Z,91.57
2022-11-14T01:08:54.499Z,91.23
2022-11-14T01:11:41.035Z,91.07
2022-11-14T01:14:27.494Z,91.83
2022-11-14T01:17:13.892Z,90.10
2022-11-14T01:20:01.783Z,90.68
2022-11-14T01:22:48.488Z,90.17
2022-11-14T01:25:34.986Z,89.19
2022-11-14T01:28:21.552Z,86.41
2022-11-14T01:31:13.368Z,86.16
2022-11-14T01:33:59.831Z,86.36
2022-11-14T01:36:47.501Z,87.23
2022-11-14T01:39:33.965Z,90.44
2022-11-14T01:42:24.529Z,91.05
2022-11-14T01:45:52.345Z,90.79
2022-11-14T01:48:42.757Z,91.58
2022-11-14T01:51:33.978Z,91.38
2022-11-14T01:54:25.054Z,92.40
2022-11-14T01:57:13.732Z,92.14
2022-11-14T02:00:06.813Z,90.92
2022-11-14T02:02:53.718Z,91.12
2022-11-14T02:05:40.540Z,91.84
2022-11-14T02:08:27.713Z,91.68
2022-11-14T02:11:16.050Z,92.07
2022-11-14T02:14:02.723Z,91.94
2022-11-14T02:17:07.701Z,89.73
2022-11-14T02:20:03.671Z,90.22
2022-11-14T02:22:52.713Z,92.13
2022-11-14T02:25:40.390Z,93.01
2022-11-14T02:28:28.391Z,92.98
2022-11-14T02:31:15.879Z,92.91
2022-11-14T02:34:02.277Z,92.54
2022-11-14T02:36:48.944Z,92.23
2022-11-14T02:39:36.709Z,93.18
2022-11-14T02:42:22.983Z,92.86
2022-11-14T02:45:11.566Z,90.74
2022-11-14T02:47:58.161Z,91.28
2022-11-14T02:50:44.597Z,92.24
2022-11-14T02:53:31.100Z,92.08
2022-11-14T02:56:18.993Z,90.40
2022-11-14T02:59:05.232Z,90.01
2022-11-14T03:01:51.878Z,90.51
2022-11-14T03:04:38.251Z,90.38
2022-11-14T03:07:24.852Z,90.81
2022-11-14T03:10:11.733Z,91.04
2022-11-14T03:12:59.793Z,90.86
2022-11-14T03:15:46.600Z,90.54
2022-11-14T03:18:32.914Z,90.25
2022-11-14T03:21:21.702Z,90.25
2022-11-14T03:24:08.412Z,89.88
2022-11-14T03:26:54.744Z,90.22
2022-11-14T03:29:42.527Z,91.09
2022-11-14T03:32:29.002Z,90.64
2022-11-14T03:35:15.416Z,90.66
2022-11-14T03:38:01.936Z,92.96
2022-11-14T03:40:48.380Z,93.11
2022-11-14T03:43:35.396Z,92.37
2022-11-14T03:46:23.134Z,91.95
2022-11-14T03:49:09.975Z,90.54
2022-11-14T03:51:56.097Z,91.37
2022-11-14T03:54:42.768Z,93.29
2022-11-14T03:57:29.551Z,92.86
2022-11-14T04:00:16.347Z,91.07
2022-11-14T04:03:04.253Z,90.42
2022-11-14T04:05:51.195Z,89.81
2022-11-14T04:08:37.392Z,92.59
2022-11-14T04:11:23.942Z,92.14
2022-11-14T04:14:10.775Z,92.20
2022-11-14T04:16:57.061Z,91.09
2022-11-14T04:19:44.803Z,91.37
2022-11-14T04:22:31.338Z,91.35
2022-11-14T04:25:17.856Z,91.50
2022-11-14T04:28:04.112Z,91.08
2022-11-14T04:30:50.661Z,91.37
2022-11-14T04:33:37.083Z,91.73
2022-11-14T04:36:24.968Z,92.31
2022-11-14T04:39:14.645Z,93.34
2022-11-14T04:42:01.345Z,93.41
2022-11-14T04:44:47.793Z,93.55
2022-11-14T04:47:34.369Z,92.88
2022-11-14T04:50:20.904Z,92.66
2022-11-14T04:53:08.595Z,92.96
2022-11-14T04:55:55.129Z,93.62
2022-11-14T04:58:41.754Z,92.79
2022-11-14T05:01:28.111Z,93.28
2022-11-14T05:04:14.609Z,92.81
2022-11-14T05:07:01.202Z,93.65
2022-11-14T05:09:48.926Z,92.75
2022-11-14T05:12:35.456Z,92.61
2022-11-14T05:15:22.062Z,92.77
2022-11-14T05:18:08.427Z,92.26
2022-11-14T05:20:54.906Z,90.95
2022-11-14T05:23:41.518Z,90.19
2022-11-14T05:26:29.223Z,90.79
2022-11-14T05:29:15.690Z,90.60
2022-11-14T05:32:02.292Z,91.35
2022-11-14T05:34:48.990Z,91.92
2022-11-14T05:37:35.997Z,91.81
2022-11-14T05:40:22.120Z,91.96
2022-11-14T05:43:09.984Z,92.37
2022-11-14T05:46:00.375Z,91.06
2022-11-14T05:48:46.891Z,91.32
2022-11-14T05:51:33.364Z,93.42
2022-11-14T05:54:19.813Z,92.85
2022-11-14T05:57:06.749Z,93.02
2022-11-14T05:59:54.821Z,93.86
2022-11-14T06:02:40.983Z,93.11
2022-11-14T06:05:27.414Z,93.12
2022-11-14T06:08:13.889Z,93.50
2022-11-14T06:11:03.445Z,91.85
2022-11-14T06:13:50.011Z,93.36
2022-11-14T06:16:38.060Z,93.97
2022-11-14T06:19:24.250Z,93.40
2022-11-14T06:22:10.634Z,93.91
2022-11-14T06:24:57.105Z,92.36
2022-11-14T06:27:43.486Z,93.09
2022-11-14T06:30:29.878Z,92.62
2022-11-14T06:33:17.792Z,92.73
2022-11-14T06:36:06.908Z,91.98
2022-11-14T06:38:53.093Z,92.34
2022-11-14T06:41:39.526Z,92.34
2022-11-14T06:44:30.700Z,92.13
2022-11-14T06:47:17.634Z,93.22
2022-11-14T06:50:05.963Z,93.78
2022-11-14T06:52:52.295Z,94.11
2022-11-14T06:55:38.845Z,93.57
2022-11-14T06:58:27.413Z,93.71
2022-11-14T07:01:15.821Z,94.26
2022-11-14T07:04:02.400Z,94.51
2022-11-14T07:06:50.311Z,94.37
2022-11-14T07:09:36.692Z,93.63
2022-11-14T07:12:23.148Z,94.05
2022-11-14T07:15:10.655Z,92.98
2022-11-14T07:17:56.889Z,93.14
2022-11-14T07:20:43.455Z,93.23
2022-11-14T07:23:31.978Z,92.32
2022-11-14T07:26:18.478Z,92.55
2022-11-14T07:29:04.677Z,93.22
2022-11-14T07:31:51.714Z,92.90
2022-11-14T07:34:38.089Z,92.76
2022-11-14T07:37:24.593Z,92.35
2022-11-14T07:40:13.503Z,91.56
2022-11-14T07:43:00.869Z,91.53
2022-11-14T07:45:47.183Z,91.43
2022-11-14T07:48:35.277Z,91.58
2022-11-14T07:51:22.219Z,92.03
2022-11-14T07:54:08.386Z,94.20
2022-11-14T07:56:56.031Z,94.72
2022-11-14T07:59:42.355Z,95.47
2022-11-14T08:02:28.803Z,95.91
2022-11-14T08:05:15.447Z,95.38
2022-11-14T08:08:02.124Z,94.58
2022-11-14T08:10:48.523Z,94.84
2022-11-14T08:13:36.252Z,94.17
2022-11-14T08:16:22.850Z,93.59
2022-11-14T08:19:09.317Z,93.62
2022-11-14T08:21:55.754Z,92.99
2022-11-14T08:24:42.226Z,92.98
2022-11-14T08:27:28.682Z,93.61
2022-11-14T08:30:17.498Z,92.92
2022-11-14T08:33:05.371Z,93.61
2022-11-14T08:35:51.691Z,93.82
2022-11-14T08:38:38.363Z,94.35
2022-11-14T08:41:24.806Z,96.34
2022-11-14T08:44:11.225Z,99.19
2022-11-14T08:47:00.279Z,100.00
2022-11-14T08:49:46.552Z,100.00
2022-11-14T08:52:33.125Z,100.00
2022-11-14T08:55:19.597Z,100.00
2022-11-14T08:58:06.164Z,100.00
2022-11-14T09:00:52.592Z,100.00
2022-11-14T09:03:40.525Z,100.00
2022-11-14T09:06:27.245Z,100.00
2022-11-14T09:09:13.866Z,100.00
2022-11-14T09:12:00.551Z,100.00
2022-11-14T09:14:46.950Z,100.00
2022-11-14T09:17:33.398Z,100.00
2022-11-14T09:20:21.227Z,100.00
2022-11-14T09:23:07.464Z,100.00
2022-11-14T09:25:54.856Z,100.00
2022-11-14T09:28:41.323Z,100.00
2022-11-14T09:31:27.426Z,100.00
2022-11-14T09:34:14.074Z,100.00
2022-11-14T09:37:01.837Z,100.00
2022-11-14T09:39:48.072Z,100.00
2022-11-14T09:42:59.631Z,100.00
2022-11-14T09:45:51.770Z,100.00
2022-11-14T09:48:38.378Z,100.00
2022-11-14T09:51:26.593Z,100.00
2022-11-14T09:54:20.690Z,100.00
2022-11-14T09:57:16.309Z,100.00
2022-11-14T10:00:03.621Z,100.00
2022-11-14T10:03:08.431Z,100.00
2022-11-14T10:06:12.363Z,100.00
2022-11-14T10:09:27.406Z,100.00
2022-11-14T10:12:24.955Z,100.00
2022-11-14T10:15:19.857Z,100.00
2022-11-14T10:18:25.771Z,100.00
2022-11-14T10:21:30.015Z,100.00
2022-11-14T10:24:32.368Z,100.00
2022-11-14T10:27:21.079Z,100.00
2022-11-14T10:30:13.224Z,100.00
2022-11-14T10:33:21.494Z,100.00
2022-11-14T10:36:18.311Z,100.00
2022-11-14T10:39:13.027Z,100.00
2022-11-14T10:42:07.858Z,100.00
2022-11-14T10:45:03.139Z,100.00
2022-11-14T10:47:54.247Z,100.00
2022-11-14T10:50:47.480Z,100.00
2022-11-14T10:53:48.190Z,100.00
2022-11-14T10:56:34.689Z,100.00
2022-11-14T10:59:23.378Z,99.84
2022-11-14T11:02:09.860Z,98.94
2022-11-14T11:05:12.767Z,99.17
2022-11-14T11:08:42.025Z,97.77
2022-11-14T11:11:31.041Z,97.60
2022-11-14T11:14:19.373Z,96.20
2022-11-14T11:17:29.545Z,93.34
2022-11-14T11:20:30.574Z,92.67
2022-11-14T11:23:22.892Z,92.67
2022-11-14T11:26:17.791Z,92.18
2022-11-14T11:29:15.910Z,92.60
2022-11-14T11:32:02.408Z,93.39
2022-11-14T11:34:52.213Z,88.74
2022-11-14T11:37:45.227Z,91.48
2022-11-14T11:40:31.605Z,91.11
2022-11-14T11:43:41.569Z,91.09
2022-11-14T11:46:40.548Z,91.83
2022-11-14T11:49:38.069Z,91.56
2022-11-14T11:52:34.011Z,91.48
2022-11-14T11:55:25.562Z,92.42
2022-11-14T11:58:19.113Z,93.48
2022-11-14T12:01:06.020Z,92.26
2022-11-14T12:03:53.897Z,92.03
2022-11-14T12:06:47.435Z,91.83
2022-11-14T12:10:09.389Z,91.56
2022-11-14T12:13:13.700Z,91.07
2022-11-14T12:16:13.330Z,90.54
2022-11-14T12:19:30.562Z,88.96
2022-11-14T12:22:55.416Z,88.34
2022-11-14T12:26:03.799Z,87.59
2022-11-14T12:29:12.929Z,88.40
2022-11-14T12:32:06.830Z,87.57
2022-11-14T12:34:53.549Z,87.40
2022-11-14T12:37:49.011Z,87.58
2022-11-14T12:40:41.262Z,85.96
2022-11-14T12:43:37.322Z,83.61
2022-11-14T12:46:24.103Z,82.09
2022-11-14T12:49:38.253Z,83.85
2022-11-14T12:52:45.018Z,81.76
2022-11-14T12:55:56.570Z,81.18
2022-11-14T12:59:11.755Z,79.95
2022-11-14T13:02:22.223Z,78.44
2022-11-14T13:05:37.289Z,76.83
2022-11-14T13:08:49.612Z,77.72
2022-11-14T13:11:59.993Z,77.72
2022-11-14T13:15:10.501Z,77.40
2022-11-14T13:18:29.211Z,76.27
2022-11-14T13:21:44.992Z,76.88
2022-11-14T13:25:22.922Z,77.95
2022-11-14T13:28:45.069Z,79.00
2022-11-14T13:31:49.171Z,80.23
2022-11-14T13:34:51.145Z,79.85
2022-11-14T13:38:03.733Z,79.35
2022-11-14T13:41:03.031Z,79.77
2022-11-14T13:44:00.707Z,78.60
2022-11-14T13:47:04.269Z,78.45
2022-11-14T13:49:59.881Z,78.63
2022-11-14T13:52:48.582Z,79.41
2022-11-14T13:55:45.549Z,79.35
2022-11-14T13:58:51.484Z,79.22
2022-11-14T14:01:52.427Z,80.03
2022-11-14T14:04:53.397Z,79.24
2022-11-14T14:07:54.031Z,79.00
2022-11-14T14:10:46.376Z,78.42
2022-11-14T14:13:51.125Z,78.02
2022-11-14T14:16:50.816Z,77.94
2022-11-14T14:19:51.495Z,78.07
2022-11-14T14:22:46.692Z,77.28
2022-11-14T14:25:42.371Z,77.48
2022-11-14T14:28:42.381Z,77.93
2022-11-14T14:31:36.965Z,78.66
2022-11-14T14:34:25.715Z,78.08
2022-11-14T14:37:18.713Z,78.11
2022-11-14T14:40:08.713Z,77.91
2022-11-14T14:42:57.299Z,77.62
2022-11-14T14:45:47.912Z,76.74
2022-11-14T14:48:39.923Z,77.17
2022-11-14T14:51:34.479Z,77.91
2022-11-14T14:54:22.762Z,78.40
2022-11-14T14:57:21.418Z,78.60
2022-11-14T15:00:20.784Z,77.90
2022-11-14T15:03:07.756Z,78.04
2022-11-14T15:06:01.254Z,78.23
2022-11-14T15:08:47.720Z,77.11
2022-11-14T15:11:34.874Z,77.23
2022-11-14T15:14:24.861Z,77.38
2022-11-14T15:17:12.921Z,77.13
2022-11-14T15:19:59.558Z,77.13
2022-11-14T15:23:03.345Z,76.74
2022-11-14T15:25:49.654Z,76.07
2022-11-14T15:28:36.266Z,75.58
2022-11-14T15:31:24.127Z,74.86
2022-11-14T15:34:25.328Z,74.62
2022-11-14T15:37:23.549Z,74.72
2022-11-14T15:40:19.770Z,73.91
2022-11-14T15:43:42.599Z,73.72
2022-11-14T15:46:55.955Z,73.48
2022-11-14T15:49:55.127Z,73.07
2022-11-14T15:52:48.445Z,73.22
2022-11-14T15:55:36.881Z,73.89
2022-11-14T15:58:30.400Z,73.46
2022-11-14T16:01:23.735Z,73.82
2022-11-14T16:04:15.091Z,73.99
2022-11-14T16:07:01.560Z,74.34
2022-11-14T16:09:48.801Z,74.59
2022-11-14T16:12:36.776Z,74.06
2022-11-14T16:15:23.128Z,74.57
2022-11-14T16:18:09.466Z,74.79
2022-11-14T16:20:59.207Z,75.45
2022-11-14T16:23:45.630Z,75.51
2022-11-14T16:26:32.143Z,75.57
2022-11-14T16:29:21.128Z,76.39
2022-11-14T16:32:09.921Z,77.31
2022-11-14T16:34:56.394Z,76.96
2022-11-14T16:37:43.014Z,76.70
2022-11-14T16:40:29.717Z,77.30
2022-11-14T16:43:16.032Z,76.83
2022-11-14T16:46:05.641Z,77.09
2022-11-14T16:48:52.265Z,77.30
2022-11-14T16:51:48.386Z,78.01
2022-11-14T16:54:35.771Z,78.11
2022-11-14T16:57:22.283Z,80.07
2022-11-14T17:00:12.259Z,80.04
2022-11-14T17:03:00.321Z,80.01
2022-11-14T17:05:48.195Z,79.88
2022-11-14T17:08:34.738Z,80.62
2022-11-14T17:11:21.343Z,80.79
2022-11-14T17:14:07.932Z,80.41
2022-11-14T17:16:54.457Z,79.72
2022-11-14T17:19:46.010Z,80.78
2022-11-14T17:22:32.259Z,81.01
2022-11-14T17:25:19.157Z,80.41
2022-11-14T17:28:05.978Z,80.45
2022-11-14T17:30:52.331Z,78.84
2022-11-14T17:33:39.125Z,78.70
2022-11-14T17:36:29.127Z,78.95
2022-11-14T17:39:15.896Z,79.74
2022-11-14T17:42:02.301Z,80.04
2022-11-14T17:44:48.833Z,80.75
2022-11-14T17:47:35.259Z,81.80
2022-11-14T17:50:21.682Z,81.94
2022-11-14T17:53:09.576Z,82.28
2022-11-14T17:55:57.045Z,82.05
2022-11-14T17:58:43.599Z,82.35
2022-11-14T18:01:31.255Z,81.82
2022-11-14T18:04:17.663Z,82.92
2022-11-14T18:07:04.004Z,82.53
2022-11-14T18:09:51.698Z,83.08
2022-11-14T18:12:38.092Z,82.90
2022-11-14T18:15:27.989Z,82.51
2022-11-14T18:18:14.675Z,81.82
2022-11-14T18:21:07.353Z,81.43
2022-11-14T18:23:55.385Z,82.43
2022-11-14T18:26:43.423Z,82.38
2022-11-14T18:29:30.732Z,82.11
2022-11-14T18:32:17.099Z,82.54
2022-11-14T18:35:03.709Z,83.12
2022-11-14T18:37:49.940Z,84.38
2022-11-14T18:40:36.412Z,84.57
2022-11-14T18:43:26.897Z,84.08
2022-11-14T18:46:15.633Z,83.92
2022-11-14T18:49:01.866Z,84.08
2022-11-14T18:51:48.465Z,83.99
2022-11-14T18:54:35.180Z,83.57
2022-11-14T18:57:21.582Z,82.94
2022-11-14T19:00:10.755Z,83.09
2022-11-14T19:03:04.834Z,82.59
2022-11-14T19:05:52.626Z,82.56
2022-11-14T19:08:39.585Z,83.54
2022-11-14T19:11:43.569Z,82.59
2022-11-14T19:14:31.205Z,82.88
2022-11-14T19:17:20.917Z,84.03
2022-11-14T19:20:13.973Z,84.82
2022-11-14T19:23:00.585Z,84.95
2022-11-14T19:25:47.018Z,85.64
2022-11-14T19:28:33.440Z,87.45
2022-11-14T19:31:21.287Z,88.20
2022-11-14T19:34:14.080Z,89.30
2022-11-14T19:37:01.403Z,89.42
2022-11-14T19:39:52.303Z,90.87
2022-11-14T19:42:38.528Z,90.68
2022-11-14T19:45:25.124Z,90.02
2022-11-14T19:48:12.008Z,87.63
2022-11-14T19:51:04.623Z,87.50
2022-11-14T19:53:53.113Z,87.54
2022-11-14T19:56:39.623Z,85.96
2022-11-14T19:59:27.880Z,86.75
2022-11-14T20:02:14.469Z,87.04
2022-11-14T20:05:00.768Z,86.98
2022-11-14T20:07:48.857Z,86.09
2022-11-14T20:10:47.726Z,85.71
2022-11-14T20:13:36.449Z,85.47
2022-11-14T20:16:25.053Z,84.20
2022-11-14T20:19:11.851Z,84.40
2022-11-14T20:21:58.263Z,84.62
2022-11-14T20:24:46.113Z,84.77
2022-11-14T20:27:32.810Z,83.95
2022-11-14T20:30:19.378Z,83.70
2022-11-14T20:33:05.913Z,83.73
2022-11-14T20:35:52.495Z,83.79
2022-11-14T20:38:39.121Z,84.44
2022-11-14T20:41:27.006Z,83.91
2022-11-14T20:44:14.706Z,84.22
2022-11-14T20:47:01.269Z,83.31
2022-11-14T20:49:47.636Z,83.41
2022-11-14T20:52:35.301Z,82.95
2022-11-14T20:55:21.974Z,83.04
2022-11-14T20:58:10.065Z,82.30
2022-11-14T21:00:56.431Z,82.22
2022-11-14T21:03:43.234Z,82.31
2022-11-14T21:06:29.375Z,82.32
2022-11-14T21:09:15.953Z,81.57
2022-11-14T21:12:02.324Z,81.70
2022-11-14T21:14:50.107Z,80.96
2022-11-14T21:17:36.531Z,80.82
2022-11-14T21:20:22.927Z,80.59
2022-11-14T21:23:09.315Z,80.70
2022-11-14T21:26:02.707Z,80.78
2022-11-14T21:28:51.618Z,80.92
2022-11-14T21:31:40.938Z,82.10
2022-11-14T21:34:27.226Z,82.31
2022-11-14T21:37:13.692Z,82.00
2022-11-14T21:40:00.210Z,83.12
2022-11-14T21:42:46.732Z,82.46
2022-11-14T21:45:33.191Z,83.30
2022-11-14T21:48:21.095Z,83.05
2022-11-14T21:51:09.999Z,83.10
2022-11-14T21:53:58.342Z,82.78
2022-11-14T21:56:44.479Z,83.64
2022-11-14T21:59:31.466Z,83.40
2022-11-14T22:02:35.412Z,83.53
2022-11-14T22:05:23.296Z,83.60
2022-11-14T22:08:09.737Z,84.16
2022-11-14T22:11:01.530Z,85.61
2022-11-14T22:13:47.753Z,85.65
2022-11-14T22:16:34.963Z,86.23
2022-11-14T22:19:21.568Z,87.52
2022-11-14T22:22:09.400Z,88.03
2022-11-14T22:24:55.895Z,86.42
2022-11-14T22:27:42.271Z,85.93
2022-11-14T22:30:29.152Z,85.75
2022-11-14T22:33:15.506Z,85.24
2022-11-14T22:36:03.377Z,84.67
2022-11-14T22:38:52.778Z,84.63
2022-11-14T22:41:39.156Z,84.71
2022-11-14T22:44:25.559Z,84.54
2022-11-14T22:47:12.097Z,84.16
2022-11-14T22:49:58.518Z,83.90
2022-11-14T22:52:45.002Z,83.88
2022-11-14T22:55:32.899Z,83.90
2022-11-14T22:58:19.449Z,83.01
2022-11-14T23:01:12.206Z,81.89
2022-11-14T23:04:00.541Z,81.70
2022-11-14T23:06:47.102Z,81.64
2022-11-14T23:09:33.597Z,81.13
2022-11-14T23:12:21.354Z,80.72
2022-11-14T23:15:08.472Z,80.34
2022-11-14T23:17:55.064Z,80.73
2022-11-14T23:20:41.519Z,79.85
2022-11-14T23:23:28.058Z,79.89
2022-11-14T23:26:16.354Z,80.27
2022-11-14T23:29:04.900Z,79.99
2022-11-14T23:31:51.374Z,79.81
2022-11-14T23:34:37.842Z,80.26
2022-11-14T23:37:24.396Z,80.49
2022-11-14T23:40:12.040Z,79.93
2022-11-14T23:42:58.265Z,79.59
2022-11-14T23:45:46.841Z,79.12
2022-11-14T23:48:33.418Z,78.77
2022-11-14T23:51:20.131Z,79.15
2022-11-14T23:54:06.413Z,78.75
2022-11-14T23:56:52.905Z,78.54
2022-11-14T23:59:39.259Z,78.54
